createdAt,value
2023-03-08T03:58:57.962Z,0.00
2023-03-08T03:59:57.732Z,0.00
2023-03-08T04:00:57.749Z,0.00
2023-03-08T04:01:57.699Z,0.00
2023-03-08T04:02:57.701Z,0.00
2023-03-08T04:03:57.764Z,0.00
2023-03-08T04:04:57.699Z,0.00
2023-03-08T04:05:57.664Z,0.00
2023-03-08T04:06:57.832Z,0.00
2023-03-08T04:07:57.708Z,0.00
2023-03-08T04:08:57.655Z,0.00
2023-03-08T04:09:57.652Z,0.00
2023-03-08T04:10:57.631Z,0.00
2023-03-08T04:11:57.630Z,0.00
2023-03-08T04:12:57.643Z,0.00
2023-03-08T04:13:57.621Z,0.00
2023-03-08T04:14:57.662Z,0.00
2023-03-08T04:15:57.658Z,0.00
2023-03-08T04:16:57.607Z,0.00
2023-03-08T04:17:57.606Z,0.00
2023-03-08T04:18:57.604Z,0.00
2023-03-08T04:19:57.591Z,0.00
2023-03-08T04:20:57.628Z,0.00
2023-03-08T04:21:57.588Z,0.00
2023-03-08T04:22:57.585Z,0.00
2023-03-08T04:23:59.516Z,0.00
2023-03-08T04:24:57.554Z,0.00
2023-03-08T04:25:57.545Z,0.00
2023-03-08T04:26:57.558Z,0.00
2023-03-08T04:27:57.542Z,0.00
2023-03-08T04:28:57.548Z,0.00
2023-03-08T04:29:57.542Z,0.00
2023-03-08T04:30:57.576Z,0.00
2023-03-08T04:31:57.529Z,0.00
2023-03-08T04:32:57.541Z,0.00
2023-03-08T04:33:57.549Z,0.00
2023-03-08T04:34:57.506Z,0.00
2023-03-08T04:35:57.503Z,0.00
2023-03-08T04:36:57.495Z,0.00
2023-03-08T04:37:57.488Z,0.00
2023-03-08T04:38:57.500Z,0.00
2023-03-08T04:39:57.487Z,0.00
2023-03-08T04:40:57.496Z,0.00
2023-03-08T04:41:57.483Z,0.00
2023-03-08T04:42:57.468Z,0.00
2023-03-08T04:43:57.468Z,0.00
2023-03-08T04:44:57.470Z,0.00
2023-03-08T04:45:57.449Z,0.00
2023-03-08T04:46:57.582Z,0.00
2023-03-08T04:47:57.450Z,0.00
2023-03-08T04:48:57.458Z,0.00
2023-03-08T04:49:57.447Z,0.00
2023-03-08T04:50:57.431Z,0.00
2023-03-08T04:51:57.431Z,0.00
2023-03-08T04:52:57.415Z,0.00
2023-03-08T04:53:57.423Z,0.00
2023-03-08T04:54:57.402Z,0.00
2023-03-08T04:55:57.403Z,0.00
2023-03-08T04:56:57.397Z,0.00
2023-03-08T04:57:57.410Z,0.00
2023-03-08T04:58:57.403Z,0.00
2023-03-08T04:59:57.388Z,0.00
2023-03-08T05:00:57.387Z,0.00
2023-03-08T05:01:57.422Z,0.00
2023-03-08T05:02:57.381Z,0.00
2023-03-08T05:03:57.373Z,0.00
2023-03-08T05:04:57.389Z,0.00
2023-03-08T05:05:57.351Z,0.00
2023-03-08T05:06:57.348Z,0.00
2023-03-08T05:07:57.362Z,0.00
2023-03-08T05:08:57.369Z,0.00
2023-03-08T05:09:57.339Z,0.00
2023-03-08T05:10:59.501Z,0.00
2023-03-08T05:11:57.332Z,0.00
2023-03-08T05:12:57.335Z,0.00
2023-03-08T05:13:57.309Z,0.00
2023-03-08T05:14:57.317Z,0.00
2023-03-08T05:15:57.394Z,0.00
2023-03-08T05:16:57.316Z,0.00
2023-03-08T05:17:57.310Z,0.00
2023-03-08T05:18:57.324Z,0.00
2023-03-08T05:19:57.283Z,0.00
2023-03-08T05:20:57.290Z,0.00
2023-03-08T05:21:57.276Z,0.00
2023-03-08T05:22:59.437Z,0.00
2023-03-08T05:23:57.282Z,0.00
2023-03-08T05:24:57.293Z,0.00
2023-03-08T05:25:57.269Z,0.00
2023-03-08T05:26:57.263Z,0.00
2023-03-08T05:27:57.241Z,0.00
2023-03-08T05:28:57.258Z,0.00
2023-03-08T05:29:57.347Z,0.00
2023-03-08T05:30:57.229Z,0.00
2023-03-08T05:31:57.294Z,0.00
2023-03-08T05:32:57.240Z,0.00
2023-03-08T05:33:57.244Z,0.00
2023-03-08T05:34:57.275Z,0.00
2023-03-08T05:35:57.251Z,0.00
2023-03-08T05:36:57.216Z,4.00
2023-03-08T05:37:57.201Z,4.00
2023-03-08T05:38:57.211Z,0.00
2023-03-08T05:39:57.192Z,4.00
2023-03-08T05:40:57.182Z,4.00
2023-03-08T05:41:57.173Z,4.00
2023-03-08T05:42:57.168Z,4.00
2023-03-08T05:43:57.178Z,8.00
2023-03-08T05:44:57.175Z,8.00
2023-03-08T05:45:57.371Z,8.00
2023-03-08T05:46:57.148Z,8.00
2023-03-08T05:47:57.157Z,8.00
2023-03-08T05:48:57.161Z,12.00
2023-03-08T05:49:57.152Z,12.00
2023-03-08T05:50:57.149Z,12.00
2023-03-08T05:51:57.127Z,20.00
2023-03-08T05:52:57.161Z,20.00
2023-03-08T05:53:58.037Z,20.00
2023-03-08T05:54:57.113Z,24.00
2023-03-08T05:55:57.105Z,28.00
2023-03-08T05:56:57.116Z,32.00
2023-03-08T05:57:57.093Z,32.00
2023-03-08T05:58:57.098Z,36.00
2023-03-08T05:59:57.088Z,40.00
2023-03-08T06:00:57.086Z,44.00
2023-03-08T06:01:57.118Z,48.00
2023-03-08T06:02:57.176Z,48.00
2023-03-08T06:03:57.088Z,56.00
2023-03-08T06:04:57.059Z,60.00
2023-03-08T06:05:57.077Z,64.00
2023-03-08T06:06:57.063Z,68.00
2023-03-08T06:07:57.042Z,72.00
2023-03-08T06:08:57.058Z,76.00
2023-03-08T06:09:57.049Z,80.00
2023-03-08T06:10:57.058Z,84.00
2023-03-08T06:11:57.056Z,92.00
2023-03-08T06:12:57.020Z,96.00
2023-03-08T06:13:57.012Z,100.00
2023-03-08T06:14:57.023Z,108.00
2023-03-08T06:15:57.043Z,112.00
2023-03-08T06:16:57.021Z,116.00
2023-03-08T06:17:56.993Z,124.00
2023-03-08T06:18:57.002Z,132.00
2023-03-08T06:19:57.080Z,136.00
2023-03-08T06:20:56.978Z,148.00
2023-03-08T06:21:56.973Z,156.00
2023-03-08T06:22:56.982Z,160.00
2023-03-08T06:23:57.014Z,160.00
2023-03-08T06:24:57.000Z,164.00
2023-03-08T06:25:56.971Z,184.00
2023-03-08T06:26:56.950Z,204.00
2023-03-08T06:27:56.951Z,224.00
2023-03-08T06:28:56.973Z,240.00
2023-03-08T06:29:56.973Z,248.00
2023-03-08T06:30:56.967Z,252.00
2023-03-08T06:31:56.932Z,256.00
2023-03-08T06:32:56.940Z,256.00
2023-03-08T06:33:57.004Z,256.00
2023-03-08T06:34:56.919Z,264.00
2023-03-08T06:35:57.147Z,264.00
2023-03-08T06:36:56.923Z,268.00
2023-03-08T06:37:56.923Z,272.00
2023-03-08T06:38:56.943Z,280.00
2023-03-08T06:39:56.892Z,284.00
2023-03-08T06:40:56.898Z,284.00
2023-03-08T06:41:56.899Z,280.00
2023-03-08T06:42:56.903Z,280.00
2023-03-08T06:43:56.912Z,288.00
2023-03-08T06:44:56.874Z,292.00
2023-03-08T06:45:57.018Z,300.00
2023-03-08T06:46:57.013Z,308.00
2023-03-08T06:47:56.947Z,316.00
2023-03-08T06:48:56.926Z,336.00
2023-03-08T06:49:56.851Z,356.00
2023-03-08T06:50:56.863Z,380.00
2023-03-08T06:51:56.875Z,400.00
2023-03-08T06:52:56.864Z,432.00
2023-03-08T06:53:56.835Z,480.00
2023-03-08T06:54:56.864Z,528.00
2023-03-08T06:55:56.903Z,572.00
2023-03-08T06:56:56.839Z,600.00
2023-03-08T06:57:56.832Z,608.00
2023-03-08T06:58:56.819Z,604.00
2023-03-08T06:59:56.851Z,608.00
2023-03-08T07:00:57.029Z,612.00
2023-03-08T07:01:56.908Z,616.00
2023-03-08T07:05:29.886Z,628.00
2023-03-08T07:06:29.885Z,632.00
2023-03-08T07:07:30.023Z,628.00
2023-03-08T07:08:29.849Z,620.00
2023-03-08T07:10:29.948Z,612.00
2023-03-08T07:11:29.852Z,604.00
2023-03-08T07:12:29.826Z,604.00
2023-03-08T07:13:29.861Z,608.00
2023-03-08T07:14:29.823Z,620.00
2023-03-08T07:15:29.881Z,644.00
2023-03-08T07:16:29.839Z,664.00
2023-03-08T07:17:29.820Z,676.00
2023-03-08T07:18:29.843Z,684.00
2023-03-08T07:19:29.796Z,700.00
2023-03-08T07:20:29.976Z,720.00
2023-03-08T07:21:29.776Z,740.00
2023-03-08T07:22:29.790Z,756.00
2023-03-08T07:23:29.886Z,768.00
2023-03-08T07:24:29.795Z,768.00
2023-03-08T07:25:29.774Z,768.00
2023-03-08T07:26:29.835Z,768.00
2023-03-08T07:27:29.747Z,768.00
2023-03-08T07:28:29.777Z,780.00
2023-03-08T07:29:29.742Z,800.00
2023-03-08T07:30:29.742Z,820.00
2023-03-08T07:31:29.733Z,848.00
2023-03-08T07:32:29.855Z,880.00
2023-03-08T07:33:29.727Z,916.00
2023-03-08T07:34:29.733Z,944.00
2023-03-08T07:35:29.723Z,960.00
2023-03-08T07:36:29.718Z,956.00
2023-03-08T07:37:29.835Z,940.00
2023-03-08T07:38:29.735Z,924.00
2023-03-08T07:39:29.703Z,912.00
2023-03-08T07:40:29.714Z,908.00
2023-03-08T07:41:29.702Z,900.00
2023-03-08T07:42:29.719Z,896.00
2023-03-08T07:43:29.714Z,900.00
2023-03-08T07:44:29.785Z,912.00
2023-03-08T07:45:29.671Z,920.00
2023-03-08T07:46:29.778Z,912.00
2023-03-08T07:47:29.684Z,892.00
2023-03-08T07:48:29.685Z,876.00
2023-03-08T07:49:29.711Z,884.00
2023-03-08T07:50:29.707Z,900.00
2023-03-08T07:52:29.686Z,924.00
2023-03-08T07:53:29.664Z,944.00
2023-03-08T07:54:29.657Z,984.00
2023-03-08T07:55:29.633Z,1060.00
2023-03-08T07:56:29.667Z,1144.00
2023-03-08T07:57:29.641Z,1224.00
2023-03-08T07:58:29.664Z,1272.00
2023-03-08T07:59:29.624Z,1252.00
2023-03-08T08:00:29.691Z,1216.00
2023-03-08T08:01:29.651Z,1256.00
2023-03-08T08:02:29.616Z,1284.00
2023-03-08T08:03:29.799Z,1320.00
2023-03-08T08:04:29.611Z,1348.00
2023-03-08T08:05:29.663Z,1368.00
2023-03-08T08:06:29.682Z,1364.00
2023-03-08T08:07:29.602Z,1352.00
2023-03-08T08:08:29.595Z,1340.00
2023-03-08T08:09:29.581Z,1316.00
2023-03-08T08:10:29.634Z,1280.00
2023-03-08T08:11:29.571Z,1200.00
2023-03-08T08:12:29.690Z,1092.00
2023-03-08T08:13:29.614Z,1044.00
2023-03-08T08:14:29.581Z,1068.00
2023-03-08T08:15:29.552Z,1104.00
2023-03-08T08:16:29.606Z,1128.00
2023-03-08T08:17:29.575Z,1148.00
2023-03-08T08:18:29.603Z,1164.00
2023-03-08T08:19:29.552Z,1184.00
2023-03-08T08:20:29.531Z,1192.00
2023-03-08T08:21:29.533Z,1200.00
2023-03-08T08:22:29.516Z,1220.00
2023-03-08T08:23:29.524Z,1240.00
2023-03-08T08:24:29.605Z,1256.00
2023-03-08T08:25:29.519Z,1264.00
2023-03-08T08:26:31.174Z,1268.00
2023-03-08T08:27:29.510Z,1256.00
2023-03-08T08:28:29.541Z,1244.00
2023-03-08T08:29:29.519Z,1248.00
2023-03-08T08:31:30.573Z,1268.00
2023-03-08T08:32:29.595Z,1272.00
2023-03-08T08:33:29.637Z,1276.00
2023-03-08T08:34:29.626Z,1272.00
2023-03-08T08:35:42.487Z,1272.00
2023-03-08T08:36:29.571Z,1276.00
2023-03-08T08:37:29.465Z,1292.00
2023-03-08T08:38:29.779Z,1316.00
2023-03-08T08:39:29.516Z,1332.00
2023-03-08T08:40:29.513Z,1352.00
2023-03-08T08:41:30.000Z,1380.00
2023-03-08T08:42:29.447Z,1420.00
2023-03-08T08:43:29.463Z,1460.00
2023-03-08T08:44:29.475Z,1488.00
2023-03-08T08:45:29.491Z,1508.00
2023-03-08T08:46:29.487Z,1520.00
2023-03-08T08:47:29.433Z,1516.00
2023-03-08T08:48:29.541Z,1504.00
2023-03-08T08:49:29.426Z,1492.00
2023-03-08T08:50:29.477Z,1480.00
2023-03-08T08:51:29.446Z,1480.00
2023-03-08T08:52:29.440Z,1488.00
2023-03-08T08:53:29.406Z,1504.00
2023-03-08T08:54:29.508Z,1532.00
2023-03-08T08:55:29.455Z,1572.00
2023-03-08T08:56:29.439Z,1616.00
2023-03-08T08:57:30.394Z,1652.00
2023-03-08T08:58:29.388Z,1676.00
2023-03-08T08:59:33.079Z,1700.00
2023-03-08T09:00:29.394Z,1724.00
2023-03-08T09:01:29.395Z,1748.00
2023-03-08T09:02:29.507Z,1764.00
2023-03-08T09:03:29.357Z,1764.00
2023-03-08T09:04:30.188Z,1752.00
2023-03-08T09:05:29.447Z,1760.00
2023-03-08T09:06:29.391Z,1792.00
2023-03-08T09:07:29.348Z,1836.00
2023-03-08T09:08:29.354Z,1888.00
2023-03-08T09:09:29.340Z,1936.00
2023-03-08T09:10:29.348Z,1988.00
2023-03-08T09:11:29.334Z,2040.00
2023-03-08T09:12:29.594Z,2072.00
2023-03-08T09:13:29.379Z,2048.00
2023-03-08T09:14:29.336Z,1968.00
2023-03-08T09:15:29.327Z,1872.00
2023-03-08T09:16:29.435Z,1788.00
2023-03-08T09:17:29.312Z,1736.00
2023-03-08T09:18:29.438Z,1716.00
2023-03-08T09:19:29.382Z,1708.00
2023-03-08T09:20:29.308Z,1724.00
2023-03-08T09:21:29.321Z,1752.00
2023-03-08T09:22:29.294Z,1780.00
2023-03-08T09:23:29.294Z,1768.00
2023-03-08T09:24:29.337Z,1728.00
2023-03-08T09:25:29.307Z,1676.00
2023-03-08T09:26:29.275Z,1640.00
2023-03-08T09:27:29.281Z,1616.00
2023-03-08T09:28:29.277Z,1600.00
2023-03-08T09:29:29.320Z,1604.00
2023-03-08T09:30:29.313Z,1624.00
2023-03-08T09:31:29.304Z,1652.00
2023-03-08T09:32:29.323Z,1668.00
2023-03-08T09:33:29.254Z,1676.00
2023-03-08T09:34:29.354Z,1676.00
2023-03-08T09:35:29.340Z,1672.00
2023-03-08T09:36:29.244Z,1664.00
2023-03-08T09:37:29.242Z,1672.00
2023-03-08T09:38:29.258Z,1680.00
2023-03-08T09:39:29.295Z,1696.00
2023-03-08T09:40:29.293Z,1708.00
2023-03-08T09:41:29.238Z,1720.00
2023-03-08T09:42:29.234Z,1732.00
2023-03-08T09:43:29.228Z,1748.00
2023-03-08T09:44:29.298Z,1752.00
2023-03-08T09:45:29.231Z,1756.00
2023-03-08T09:46:29.232Z,1752.00
2023-03-08T09:47:29.213Z,1756.00
2023-03-08T09:48:29.202Z,1768.00
2023-03-08T09:49:29.262Z,1808.00
2023-03-08T09:50:29.220Z,1844.00
2023-03-08T09:51:29.209Z,1876.00
2023-03-08T09:52:29.321Z,1900.00
2023-03-08T09:53:29.316Z,1912.00
2023-03-08T09:54:29.194Z,1928.00
2023-03-08T09:55:29.194Z,1928.00
2023-03-08T09:56:29.192Z,1932.00
2023-03-08T09:57:29.271Z,1940.00
2023-03-08T09:58:29.209Z,1944.00
2023-03-08T09:59:29.241Z,1964.00
2023-03-08T10:00:29.260Z,1972.00
2023-03-08T10:01:29.171Z,1984.00
2023-03-08T10:15:14.224Z,2000.00
2023-03-08T10:16:14.091Z,2012.00
2023-03-08T10:17:14.060Z,2064.00
2023-03-08T10:18:14.039Z,2116.00
2023-03-08T10:19:14.047Z,2152.00
2023-03-08T10:20:14.048Z,2156.00
2023-03-08T10:21:14.054Z,2128.00
2023-03-08T10:22:14.028Z,2092.00
2023-03-08T10:23:14.012Z,2056.00
2023-03-08T10:24:14.021Z,2024.00
2023-03-08T10:25:14.067Z,1992.00
2023-03-08T10:26:14.131Z,1960.00
2023-03-08T10:27:15.159Z,1940.00
2023-03-08T10:28:14.004Z,1932.00
2023-03-08T10:29:14.050Z,1936.00
2023-03-08T10:30:14.008Z,1956.00
2023-03-08T10:31:14.119Z,1980.00
2023-03-08T10:33:13.997Z,2024.00
2023-03-08T10:34:15.000Z,2008.00
2023-03-08T10:35:15.489Z,1964.00
2023-03-08T10:36:13.985Z,1928.00
2023-03-08T10:37:13.984Z,1952.00
2023-03-08T10:38:14.124Z,2048.00
2023-03-08T10:39:14.028Z,2124.00
2023-03-08T10:40:14.050Z,2116.00
2023-03-08T10:41:13.969Z,2064.00
2023-03-08T10:42:14.005Z,2040.00
2023-03-08T10:43:13.951Z,2076.00
2023-03-08T10:44:13.963Z,2124.00
2023-03-08T10:45:14.073Z,2168.00
2023-03-08T10:46:14.753Z,2176.00
2023-03-08T10:47:18.178Z,2132.00
2023-03-08T10:48:13.934Z,2084.00
2023-03-08T10:49:13.977Z,2040.00
2023-03-08T10:50:13.927Z,2052.00
2023-03-08T10:51:14.827Z,2100.00
2023-03-08T10:52:13.914Z,2112.00
2023-03-08T10:53:13.921Z,2128.00
2023-03-08T10:54:13.915Z,2204.00
2023-03-08T10:55:13.928Z,2268.00
2023-03-08T10:56:13.959Z,2316.00
2023-03-08T10:57:13.922Z,2368.00
2023-03-08T10:58:14.033Z,2404.00
2023-03-08T10:59:13.908Z,2388.00
2023-03-08T11:00:13.898Z,2332.00
2023-03-08T11:01:13.888Z,2244.00
2023-03-08T11:02:13.958Z,2176.00
2023-03-08T11:03:13.983Z,2128.00
2023-03-08T11:04:13.970Z,2048.00
2023-03-08T11:05:13.926Z,1920.00
2023-03-08T11:06:13.889Z,1748.00
2023-03-08T11:07:13.874Z,1576.00
2023-03-08T11:08:14.708Z,1496.00
2023-03-08T11:09:13.867Z,1472.00
2023-03-08T11:10:13.872Z,1488.00
2023-03-08T11:11:13.895Z,1632.00
2023-03-08T11:12:13.936Z,1796.00
2023-03-08T11:13:13.847Z,1936.00
2023-03-08T11:14:13.924Z,2116.00
2023-03-08T11:15:13.852Z,2292.00
2023-03-08T11:16:13.897Z,2452.00
2023-03-08T11:17:13.841Z,2572.00
2023-03-08T11:18:13.863Z,2572.00
2023-03-08T11:19:13.984Z,2720.00
2023-03-08T11:20:14.708Z,2876.00
2023-03-08T11:21:13.828Z,2776.00
2023-03-08T11:22:13.890Z,2688.00
2023-03-08T11:23:13.873Z,2552.00
2023-03-08T11:24:13.859Z,2460.00
2023-03-08T11:25:13.963Z,2568.00
2023-03-08T11:26:13.829Z,2648.00
2023-03-08T11:27:13.864Z,2628.00
2023-03-08T11:28:13.970Z,2540.00
2023-03-08T11:29:13.875Z,2436.00
2023-03-08T11:30:13.791Z,2472.00
2023-03-08T11:31:13.841Z,2640.00
2023-03-08T11:32:13.812Z,2832.00
2023-03-08T11:33:14.019Z,3140.00
2023-03-08T11:34:13.810Z,3436.00
2023-03-08T11:35:13.830Z,3576.00
2023-03-08T11:36:13.868Z,3536.00
2023-03-08T11:37:13.807Z,3460.00
2023-03-08T11:38:13.819Z,3648.00
2023-03-08T11:39:13.796Z,3752.00
2023-03-08T11:40:13.778Z,3988.00
2023-03-08T11:41:13.774Z,4092.00
2023-03-08T11:42:13.757Z,3988.00
2023-03-08T11:43:13.754Z,3920.00
2023-03-08T11:44:13.811Z,3692.00
2023-03-08T11:45:13.836Z,3504.00
2023-03-08T11:46:14.206Z,3504.00
2023-03-08T11:47:14.148Z,3440.00
2023-03-08T11:48:13.746Z,3556.00
2023-03-08T11:49:13.795Z,3764.00
2023-03-08T11:50:13.753Z,4032.00
2023-03-08T11:51:13.746Z,4324.00
2023-03-08T11:52:13.763Z,4496.00
2023-03-08T11:53:13.746Z,4664.00
2023-03-08T11:54:13.776Z,4708.00
2023-03-08T11:55:13.982Z,4720.00
2023-03-08T11:56:13.756Z,4660.00
2023-03-08T11:57:13.743Z,5060.00
2023-03-08T11:58:13.707Z,5292.00
2023-03-08T11:59:13.820Z,5352.00
2023-03-08T12:00:13.734Z,5020.00
2023-03-08T12:01:13.717Z,4836.00
2023-03-08T12:02:13.754Z,5380.00
2023-03-08T12:03:13.724Z,5008.00
2023-03-08T12:04:13.818Z,4764.00
2023-03-08T12:05:13.817Z,4736.00
2023-03-08T12:06:26.518Z,5204.00
2023-03-08T12:07:13.869Z,5188.00
2023-03-08T12:08:13.756Z,5152.00
2023-03-08T12:09:13.868Z,5376.00
2023-03-08T12:10:13.748Z,5584.00
2023-03-08T12:11:13.795Z,5168.00
2023-03-08T12:12:13.764Z,5260.00
2023-03-08T12:13:13.701Z,5072.00
2023-03-08T12:14:13.685Z,5340.00
2023-03-08T12:15:13.783Z,4896.00
2023-03-08T12:16:13.830Z,4772.00
2023-03-08T12:17:13.979Z,4696.00
2023-03-08T12:18:13.984Z,4960.00
2023-03-08T12:19:13.713Z,4844.00
2023-03-08T12:20:13.688Z,4600.00
2023-03-08T12:21:13.715Z,4128.00
2023-03-08T12:22:13.728Z,3740.00
2023-03-08T12:23:13.675Z,3508.00
2023-03-08T12:24:13.770Z,3468.00
2023-03-08T12:25:13.699Z,3516.00
2023-03-08T12:26:13.687Z,3468.00
2023-03-08T12:27:13.663Z,3388.00
2023-03-08T12:28:13.726Z,3184.00
2023-03-08T12:29:13.690Z,2872.00
2023-03-08T12:30:13.668Z,2820.00
2023-03-08T12:31:26.653Z,3136.00
2023-03-08T12:32:13.971Z,3380.00
2023-03-08T12:33:13.947Z,3248.00
2023-03-08T12:34:13.655Z,2988.00
2023-03-08T12:35:13.646Z,2648.00
2023-03-08T12:36:13.744Z,2320.00
2023-03-08T12:37:13.697Z,2180.00
2023-03-08T12:38:13.708Z,2180.00
2023-03-08T12:39:13.752Z,2428.00
2023-03-08T12:40:13.802Z,2832.00
2023-03-08T12:41:13.719Z,2864.00
2023-03-08T12:42:13.643Z,2780.00
2023-03-08T12:43:13.656Z,2732.00
2023-03-08T12:44:13.661Z,2680.00
2023-03-08T12:45:13.624Z,2832.00
2023-03-08T12:46:13.986Z,2908.00
2023-03-08T12:50:11.304Z,2604.00
2023-03-08T12:51:11.342Z,2584.00
2023-03-08T12:52:11.272Z,2600.00
2023-03-08T12:53:11.262Z,2576.00
2023-03-08T12:54:11.319Z,2508.00
2023-03-08T12:55:11.279Z,2436.00
2023-03-08T12:56:11.278Z,2312.00
2023-03-08T12:57:11.283Z,2188.00
2023-03-08T12:58:11.254Z,2092.00
2023-03-08T12:59:11.262Z,2008.00
2023-03-08T13:00:11.245Z,1960.00
2023-03-08T13:01:11.329Z,2004.00
2023-03-08T13:02:11.306Z,2104.00
2023-03-08T13:03:11.265Z,2152.00
2023-03-08T13:04:11.293Z,2044.00
2023-03-08T13:05:11.397Z,1912.00
2023-03-08T13:06:11.236Z,1868.00
2023-03-08T13:07:11.264Z,1860.00
2023-03-08T13:08:11.301Z,1868.00
2023-03-08T13:09:11.239Z,1824.00
2023-03-08T13:10:11.243Z,1780.00
2023-03-08T13:11:11.280Z,1780.00
2023-03-08T13:12:11.259Z,1848.00
2023-03-08T13:13:20.480Z,1912.00
2023-03-08T13:14:11.232Z,1912.00
2023-03-08T13:15:11.224Z,1872.00
2023-03-08T13:16:11.263Z,1772.00
2023-03-08T13:17:11.270Z,1680.00
2023-03-08T13:18:11.232Z,1620.00
2023-03-08T13:19:11.260Z,1604.00
2023-03-08T13:20:11.354Z,1568.00
2023-03-08T13:21:11.197Z,1500.00
2023-03-08T13:22:11.333Z,1440.00
2023-03-08T13:23:11.339Z,1428.00
2023-03-08T13:24:11.204Z,1400.00
2023-03-08T13:25:11.242Z,1300.00
2023-03-08T13:26:11.249Z,1212.00
2023-03-08T13:27:11.274Z,1280.00
2023-03-08T13:28:11.232Z,1376.00
2023-03-08T13:29:11.235Z,1436.00
2023-03-08T13:30:11.268Z,1504.00
2023-03-08T13:31:11.281Z,1520.00
2023-03-08T13:32:11.280Z,1496.00
2023-03-08T13:33:11.213Z,1464.00
2023-03-08T13:34:11.176Z,1440.00
2023-03-08T13:35:11.166Z,1436.00
2023-03-08T13:36:11.733Z,1424.00
2023-03-08T13:37:11.201Z,1384.00
2023-03-08T13:38:11.201Z,1340.00
2023-03-08T13:39:11.149Z,1328.00
2023-03-08T13:40:11.146Z,1352.00
2023-03-08T13:41:11.169Z,1348.00
2023-03-08T13:42:11.310Z,1304.00
2023-03-08T13:43:11.187Z,1260.00
2023-03-08T13:44:11.134Z,1212.00
2023-03-08T13:45:11.132Z,1156.00
2023-03-08T13:46:11.194Z,1096.00
2023-03-08T13:47:11.120Z,1020.00
2023-03-08T13:48:11.156Z,944.00
2023-03-08T13:49:11.129Z,888.00
2023-03-08T13:50:11.135Z,880.00
2023-03-08T13:51:11.176Z,868.00
2023-03-08T13:52:11.135Z,856.00
2023-03-08T13:53:11.174Z,848.00
2023-03-08T13:54:11.151Z,856.00
2023-03-08T13:55:11.158Z,872.00
2023-03-08T13:56:11.154Z,892.00
2023-03-08T13:57:11.141Z,900.00
2023-03-08T13:58:11.149Z,884.00
2023-03-08T13:59:11.200Z,832.00
2023-03-08T14:00:11.185Z,780.00
2023-03-08T14:01:11.151Z,732.00
2023-03-08T14:02:11.131Z,704.00
2023-03-08T14:03:11.109Z,704.00
2023-03-08T14:04:11.179Z,712.00
2023-03-08T14:05:11.094Z,716.00
2023-03-08T14:06:11.100Z,740.00
2023-03-08T14:07:11.067Z,784.00
2023-03-08T14:08:11.082Z,840.00
2023-03-08T14:09:11.047Z,856.00
2023-03-08T14:10:11.134Z,860.00
2023-03-08T14:11:11.057Z,856.00
2023-03-08T14:12:11.120Z,848.00
2023-03-08T14:13:11.066Z,836.00
2023-03-08T14:14:11.094Z,824.00
2023-03-08T14:15:11.101Z,816.00
2023-03-08T14:16:11.174Z,820.00
2023-03-08T14:17:11.045Z,848.00
2023-03-08T14:18:11.079Z,880.00
2023-03-08T14:19:11.136Z,920.00
2023-03-08T14:20:11.054Z,984.00
2023-03-08T14:21:11.046Z,1016.00
2023-03-08T14:22:11.078Z,972.00
2023-03-08T14:23:11.051Z,880.00
2023-03-08T14:24:11.076Z,804.00
2023-03-08T14:25:11.025Z,764.00
2023-03-08T14:26:11.012Z,740.00
2023-03-08T14:27:10.996Z,744.00
2023-03-08T14:28:11.038Z,764.00
2023-03-08T14:29:11.016Z,772.00
2023-03-08T14:30:11.012Z,768.00
2023-03-08T14:31:11.168Z,756.00
2023-03-08T14:32:11.245Z,744.00
2023-03-08T14:33:10.973Z,748.00
2023-03-08T14:34:11.001Z,752.00
2023-03-08T14:35:10.968Z,756.00
2023-03-08T14:36:11.105Z,792.00
2023-03-08T14:37:10.991Z,844.00
2023-03-08T14:38:10.960Z,908.00
2023-03-08T14:39:10.974Z,900.00
2023-03-08T14:40:10.944Z,876.00
2023-03-08T14:41:10.936Z,932.00
2023-03-08T14:42:10.939Z,972.00
2023-03-08T14:43:10.965Z,960.00
2023-03-08T14:44:10.941Z,928.00
2023-03-08T14:45:10.975Z,904.00
2023-03-08T14:47:10.937Z,852.00
2023-03-08T14:48:10.922Z,840.00
2023-03-08T14:49:10.977Z,848.00
2023-03-08T14:50:10.934Z,868.00
2023-03-08T14:51:10.912Z,872.00
2023-03-08T14:52:10.958Z,844.00
2023-03-08T14:53:10.908Z,784.00
2023-03-08T14:54:10.917Z,712.00
2023-03-08T14:55:10.901Z,664.00
2023-03-08T14:56:10.874Z,636.00
2023-03-08T14:57:10.880Z,628.00
2023-03-08T14:58:10.878Z,640.00
2023-03-08T14:59:21.644Z,664.00
2023-03-08T15:00:10.867Z,692.00
2023-03-08T15:01:10.866Z,716.00
2023-03-08T15:02:11.026Z,736.00
2023-03-08T15:03:10.883Z,752.00
2023-03-08T15:04:13.853Z,752.00
2023-03-08T15:05:13.325Z,748.00
2023-03-08T15:06:10.856Z,744.00
2023-03-08T15:07:10.877Z,732.00
2023-03-08T15:08:10.841Z,724.00
2023-03-08T15:09:10.858Z,716.00
2023-03-08T15:10:13.130Z,712.00
2023-03-08T15:11:10.826Z,696.00
2023-03-08T15:12:10.915Z,668.00
2023-03-08T15:13:10.819Z,636.00
2023-03-08T15:14:10.827Z,620.00
2023-03-08T15:15:10.810Z,624.00
2023-03-08T15:16:12.693Z,652.00
2023-03-08T15:17:10.825Z,700.00
2023-03-08T15:18:10.809Z,708.00
2023-03-08T15:19:10.819Z,688.00
2023-03-08T15:20:10.798Z,648.00
2023-03-08T15:21:10.787Z,628.00
2023-03-08T15:22:12.871Z,616.00
2023-03-08T15:23:10.786Z,604.00
2023-03-08T15:24:10.771Z,596.00
2023-03-08T15:25:10.792Z,580.00
2023-03-08T15:26:10.779Z,556.00
2023-03-08T15:27:10.775Z,532.00
2023-03-08T15:28:10.771Z,516.00
2023-03-08T15:29:10.750Z,520.00
2023-03-08T15:30:10.755Z,536.00
2023-03-08T15:31:10.808Z,560.00
2023-03-08T15:32:11.720Z,592.00
2023-03-08T15:33:10.774Z,608.00
2023-03-08T15:34:10.748Z,616.00
2023-03-08T15:35:10.758Z,624.00
2023-03-08T15:36:10.751Z,640.00
2023-03-08T15:37:10.722Z,628.00
2023-03-08T15:38:10.755Z,600.00
2023-03-08T15:39:10.711Z,584.00
2023-03-08T15:40:10.719Z,572.00
2023-03-08T15:41:10.712Z,584.00
2023-03-08T15:42:10.701Z,572.00
2023-03-08T15:43:10.710Z,552.00
2023-03-08T15:44:10.718Z,544.00
2023-03-08T15:45:10.819Z,524.00
2023-03-08T15:46:10.686Z,516.00
2023-03-08T15:47:10.695Z,500.00
2023-03-08T15:48:10.672Z,492.00
2023-03-08T15:49:10.679Z,468.00
2023-03-08T15:50:10.671Z,472.00
2023-03-08T15:51:10.689Z,492.00
2023-03-08T15:52:10.661Z,520.00
2023-03-08T15:53:10.681Z,548.00
2023-03-08T15:54:10.679Z,556.00
2023-03-08T15:55:10.656Z,548.00
2023-03-08T15:56:10.645Z,548.00
2023-03-08T15:57:10.649Z,552.00
2023-03-08T15:58:12.014Z,548.00
2023-03-08T15:59:10.645Z,528.00
2023-03-08T16:00:10.632Z,516.00
2023-03-08T16:12:23.576Z,588.00
2023-03-08T16:13:23.506Z,572.00
2023-03-08T16:14:23.475Z,552.00
2023-03-08T16:15:23.468Z,544.00
2023-03-08T16:16:35.022Z,532.00
2023-03-08T16:17:23.584Z,520.00
2023-03-08T16:18:23.459Z,520.00
2023-03-08T16:19:23.440Z,528.00
2023-03-08T16:20:23.462Z,548.00
2023-03-08T16:21:23.451Z,564.00
2023-03-08T16:22:23.417Z,568.00
2023-03-08T16:23:23.488Z,560.00
2023-03-08T16:24:23.427Z,544.00
2023-03-08T16:25:23.413Z,524.00
2023-03-08T16:26:23.415Z,508.00
2023-03-08T16:27:23.410Z,496.00
2023-03-08T16:28:23.437Z,488.00
2023-03-08T16:29:23.412Z,480.00
2023-03-08T16:30:23.415Z,484.00
2023-03-08T16:31:23.446Z,476.00
2023-03-08T16:32:23.450Z,484.00
2023-03-08T16:33:23.383Z,480.00
2023-03-08T16:34:23.392Z,468.00
2023-03-08T16:35:23.412Z,424.00
2023-03-08T16:36:23.371Z,388.00
2023-03-08T16:37:23.370Z,380.00
2023-03-08T16:38:23.361Z,352.00
2023-03-08T16:39:23.366Z,332.00
2023-03-08T16:40:23.378Z,304.00
2023-03-08T16:41:23.348Z,284.00
2023-03-08T16:42:23.349Z,268.00
2023-03-08T16:43:23.349Z,252.00
2023-03-08T16:44:23.353Z,244.00
2023-03-08T16:45:23.332Z,232.00
2023-03-08T16:46:23.454Z,220.00
2023-03-08T16:47:23.316Z,204.00
2023-03-08T16:48:23.323Z,188.00
2023-03-08T16:49:23.330Z,180.00
2023-03-08T16:50:23.310Z,164.00
2023-03-08T16:51:23.328Z,152.00
2023-03-08T16:52:23.298Z,140.00
2023-03-08T16:53:23.768Z,132.00
2023-03-08T16:54:23.309Z,124.00
2023-03-08T16:55:23.280Z,116.00
2023-03-08T16:56:23.298Z,112.00
2023-03-08T16:57:23.271Z,108.00
2023-03-08T16:58:23.270Z,104.00